sensor_id;sensor_type;location;lat;lon;timestamp;P1;durP1;ratioP1;P2;durP2;ratioP2
7957;SDS011;4024;52.172;5.378;2022-08-03T00:00:41;4.50;;;2.47;;
7957;SDS011;4024;52.172;5.378;2022-08-03T00:03:06;5.60;;;2.33;;
7957;SDS011;4024;52.172;5.378;2022-08-03T00:05:32;5.67;;;2.27;;
7957;SDS011;4024;52.172;5.378;2022-08-03T00:07:59;5.47;;;2.37;;
7957;SDS011;4024;52.172;5.378;2022-08-03T00:10:24;4.67;;;2.13;;
7957;SDS011;4024;52.172;5.378;2022-08-03T00:12:51;5.40;;;2.47;;
7957;SDS011;4024;52.172;5.378;2022-08-03T00:15:17;5.77;;;2.60;;
7957;SDS011;4024;52.172;5.378;2022-08-03T00:17:43;3.60;;;2.37;;
7957;SDS011;4024;52.172;5.378;2022-08-03T00:20:09;4.30;;;2.33;;
7957;SDS011;4024;52.172;5.378;2022-08-03T00:22:35;5.83;;;2.63;;
7957;SDS011;4024;52.172;5.378;2022-08-03T00:25:00;7.33;;;2.63;;
7957;SDS011;4024;52.172;5.378;2022-08-03T00:27:28;6.33;;;2.60;;
7957;SDS011;4024;52.172;5.378;2022-08-03T00:29:54;4.13;;;2.20;;
7957;SDS011;4024;52.172;5.378;2022-08-03T00:32:20;5.67;;;2.40;;
7957;SDS011;4024;52.172;5.378;2022-08-03T00:34:46;4.33;;;2.83;;
7957;SDS011;4024;52.172;5.378;2022-08-03T00:37:11;4.13;;;2.40;;
7957;SDS011;4024;52.172;5.378;2022-08-03T00:39:37;4.87;;;2.47;;
7957;SDS011;4024;52.172;5.378;2022-08-03T00:42:03;6.90;;;2.40;;
7957;SDS011;4024;52.172;5.378;2022-08-03T00:44:29;7.73;;;2.40;;
7957;SDS011;4024;52.172;5.378;2022-08-03T00:46:55;9.43;;;2.83;;
7957;SDS011;4024;52.172;5.378;2022-08-03T00:49:21;6.03;;;3.10;;
7957;SDS011;4024;52.172;5.378;2022-08-03T00:51:47;4.57;;;2.30;;
7957;SDS011;4024;52.172;5.378;2022-08-03T00:54:13;5.23;;;2.53;;
7957;SDS011;4024;52.172;5.378;2022-08-03T00:56:39;4.60;;;2.37;;
7957;SDS011;4024;52.172;5.378;2022-08-03T00:59:08;5.83;;;2.83;;
7957;SDS011;4024;52.172;5.378;2022-08-03T01:01:34;6.90;;;2.97;;
7957;SDS011;4024;52.172;5.378;2022-08-03T01:04:00;4.37;;;2.50;;
7957;SDS011;4024;52.172;5.378;2022-08-03T01:06:49;5.50;;;2.50;;
7957;SDS011;4024;52.172;5.378;2022-08-03T01:09:28;6.03;;;2.20;;
7957;SDS011;4024;52.172;5.378;2022-08-03T01:12:16;8.07;;;2.83;;
7957;SDS011;4024;52.172;5.378;2022-08-03T01:20:31;6.07;;;2.90;;
7957;SDS011;4024;52.172;5.378;2022-08-03T01:23:02;5.03;;;2.63;;
7957;SDS011;4024;52.172;5.378;2022-08-03T01:28:55;9.40;;;2.93;;
7957;SDS011;4024;52.172;5.378;2022-08-03T01:31:42;6.40;;;2.73;;
7957;SDS011;4024;52.172;5.378;2022-08-03T01:34:14;3.90;;;2.50;;
7957;SDS011;4024;52.172;5.378;2022-08-03T01:36:44;5.80;;;2.80;;
7957;SDS011;4024;52.172;5.378;2022-08-03T01:39:15;5.67;;;2.90;;
7957;SDS011;4024;52.172;5.378;2022-08-03T01:41:50;6.77;;;2.97;;
7957;SDS011;4024;52.172;5.378;2022-08-03T01:44:23;5.37;;;3.00;;
7957;SDS011;4024;52.172;5.378;2022-08-03T01:46:54;5.17;;;2.53;;
7957;SDS011;4024;52.172;5.378;2022-08-03T01:49:22;11.40;;;3.37;;
7957;SDS011;4024;52.172;5.378;2022-08-03T01:51:49;4.47;;;2.90;;
7957;SDS011;4024;52.172;5.378;2022-08-03T01:54:16;5.57;;;2.90;;
7957;SDS011;4024;52.172;5.378;2022-08-03T01:56:44;7.77;;;3.13;;
7957;SDS011;4024;52.172;5.378;2022-08-03T01:59:11;8.47;;;3.30;;
7957;SDS011;4024;52.172;5.378;2022-08-03T02:01:40;7.30;;;3.07;;
7957;SDS011;4024;52.172;5.378;2022-08-03T02:04:08;7.43;;;3.20;;
7957;SDS011;4024;52.172;5.378;2022-08-03T02:06:36;5.27;;;3.07;;
7957;SDS011;4024;52.172;5.378;2022-08-03T02:09:03;9.00;;;2.97;;
7957;SDS011;4024;52.172;5.378;2022-08-03T02:11:30;6.80;;;3.00;;
7957;SDS011;4024;52.172;5.378;2022-08-03T02:13:59;7.43;;;3.20;;
7957;SDS011;4024;52.172;5.378;2022-08-03T02:16:28;12.97;;;3.83;;
7957;SDS011;4024;52.172;5.378;2022-08-03T02:18:57;8.87;;;3.43;;
7957;SDS011;4024;52.172;5.378;2022-08-03T02:21:25;6.80;;;3.83;;
7957;SDS011;4024;52.172;5.378;2022-08-03T02:23:54;8.63;;;3.60;;
7957;SDS011;4024;52.172;5.378;2022-08-03T02:26:20;5.93;;;3.30;;
7957;SDS011;4024;52.172;5.378;2022-08-03T02:28:47;5.80;;;3.73;;
7957;SDS011;4024;52.172;5.378;2022-08-03T02:31:18;16.33;;;4.23;;
7957;SDS011;4024;52.172;5.378;2022-08-03T02:33:53;8.80;;;3.10;;
7957;SDS011;4024;52.172;5.378;2022-08-03T02:36:24;8.80;;;3.40;;
7957;SDS011;4024;52.172;5.378;2022-08-03T02:38:53;8.37;;;3.50;;
7957;SDS011;4024;52.172;5.378;2022-08-03T02:41:34;7.83;;;3.47;;
7957;SDS011;4024;52.172;5.378;2022-08-03T02:44:03;8.13;;;3.27;;
7957;SDS011;4024;52.172;5.378;2022-08-03T02:46:35;10.67;;;3.77;;
7957;SDS011;4024;52.172;5.378;2022-08-03T02:49:02;6.30;;;4.13;;
7957;SDS011;4024;52.172;5.378;2022-08-03T02:51:30;6.07;;;3.30;;
7957;SDS011;4024;52.172;5.378;2022-08-03T02:53:57;5.40;;;2.80;;
7957;SDS011;4024;52.172;5.378;2022-08-03T02:56:26;12.20;;;3.63;;
7957;SDS011;4024;52.172;5.378;2022-08-03T02:58:53;6.17;;;3.33;;
7957;SDS011;4024;52.172;5.378;2022-08-03T03:01:20;9.13;;;3.60;;
7957;SDS011;4024;52.172;5.378;2022-08-03T03:03:48;5.47;;;2.87;;
7957;SDS011;4024;52.172;5.378;2022-08-03T03:06:16;7.03;;;3.17;;
7957;SDS011;4024;52.172;5.378;2022-08-03T03:08:43;10.93;;;4.40;;
7957;SDS011;4024;52.172;5.378;2022-08-03T03:11:10;8.63;;;3.50;;
7957;SDS011;4024;52.172;5.378;2022-08-03T03:13:38;6.70;;;3.33;;
7957;SDS011;4024;52.172;5.378;2022-08-03T03:16:06;9.17;;;4.00;;
7957;SDS011;4024;52.172;5.378;2022-08-03T03:18:33;9.50;;;3.47;;
7957;SDS011;4024;52.172;5.378;2022-08-03T03:21:02;13.40;;;4.47;;
7957;SDS011;4024;52.172;5.378;2022-08-03T03:23:29;13.10;;;3.80;;
7957;SDS011;4024;52.172;5.378;2022-08-03T03:25:56;8.23;;;4.17;;
7957;SDS011;4024;52.172;5.378;2022-08-03T03:28:23;8.70;;;3.83;;
7957;SDS011;4024;52.172;5.378;2022-08-03T03:30:49;8.77;;;4.20;;
7957;SDS011;4024;52.172;5.378;2022-08-03T03:33:16;14.73;;;4.13;;
7957;SDS011;4024;52.172;5.378;2022-08-03T03:35:42;10.17;;;3.50;;
7957;SDS011;4024;52.172;5.378;2022-08-03T03:38:10;10.00;;;3.67;;
7957;SDS011;4024;52.172;5.378;2022-08-03T03:40:36;3.83;;;3.13;;
7957;SDS011;4024;52.172;5.378;2022-08-03T03:43:04;9.17;;;3.57;;
7957;SDS011;4024;52.172;5.378;2022-08-03T03:45:32;9.43;;;3.73;;
7957;SDS011;4024;52.172;5.378;2022-08-03T03:48:00;10.37;;;3.93;;
7957;SDS011;4024;52.172;5.378;2022-08-03T03:50:26;8.33;;;3.43;;
7957;SDS011;4024;52.172;5.378;2022-08-03T03:52:54;7.37;;;4.00;;
7957;SDS011;4024;52.172;5.378;2022-08-03T03:55:19;9.53;;;4.00;;
7957;SDS011;4024;52.172;5.378;2022-08-03T03:57:45;7.57;;;3.63;;
7957;SDS011;4024;52.172;5.378;2022-08-03T04:00:12;11.33;;;4.10;;
7957;SDS011;4024;52.172;5.378;2022-08-03T04:02:38;14.13;;;4.23;;
7957;SDS011;4024;52.172;5.378;2022-08-03T04:05:04;10.50;;;4.00;;
7957;SDS011;4024;52.172;5.378;2022-08-03T04:13:34;8.03;;;4.03;;
7957;SDS011;4024;52.172;5.378;2022-08-03T04:16:02;10.57;;;4.10;;
7957;SDS011;4024;52.172;5.378;2022-08-03T04:18:29;7.47;;;3.97;;
7957;SDS011;4024;52.172;5.378;2022-08-03T04:21:02;9.33;;;4.30;;
7957;SDS011;4024;52.172;5.378;2022-08-03T04:23:32;10.73;;;3.67;;
7957;SDS011;4024;52.172;5.378;2022-08-03T04:26:00;8.70;;;4.10;;
7957;SDS011;4024;52.172;5.378;2022-08-03T04:28:27;8.90;;;4.03;;
7957;SDS011;4024;52.172;5.378;2022-08-03T04:30:53;6.97;;;4.00;;
7957;SDS011;4024;52.172;5.378;2022-08-03T04:33:21;6.33;;;3.53;;
7957;SDS011;4024;52.172;5.378;2022-08-03T04:35:52;9.87;;;4.13;;
7957;SDS011;4024;52.172;5.378;2022-08-03T04:38:22;10.93;;;4.20;;
7957;SDS011;4024;52.172;5.378;2022-08-03T04:40:49;6.23;;;3.40;;
7957;SDS011;4024;52.172;5.378;2022-08-03T04:43:16;7.97;;;3.60;;
7957;SDS011;4024;52.172;5.378;2022-08-03T04:45:43;13.00;;;4.33;;
7957;SDS011;4024;52.172;5.378;2022-08-03T04:48:12;7.40;;;3.90;;
7957;SDS011;4024;52.172;5.378;2022-08-03T04:50:39;11.37;;;4.17;;
7957;SDS011;4024;52.172;5.378;2022-08-03T04:53:06;11.17;;;4.27;;
7957;SDS011;4024;52.172;5.378;2022-08-03T04:55:33;8.70;;;4.00;;
7957;SDS011;4024;52.172;5.378;2022-08-03T04:58:00;9.53;;;4.07;;
7957;SDS011;4024;52.172;5.378;2022-08-03T05:00:27;9.57;;;4.17;;
7957;SDS011;4024;52.172;5.378;2022-08-03T05:02:53;9.77;;;4.07;;
7957;SDS011;4024;52.172;5.378;2022-08-03T05:05:19;12.03;;;4.00;;
7957;SDS011;4024;52.172;5.378;2022-08-03T05:07:45;8.70;;;4.50;;
7957;SDS011;4024;52.172;5.378;2022-08-03T05:10:12;12.17;;;4.33;;
7957;SDS011;4024;52.172;5.378;2022-08-03T05:12:38;10.03;;;4.20;;
7957;SDS011;4024;52.172;5.378;2022-08-03T05:15:04;7.90;;;4.00;;
7957;SDS011;4024;52.172;5.378;2022-08-03T05:17:31;9.43;;;3.83;;
7957;SDS011;4024;52.172;5.378;2022-08-03T05:19:58;7.23;;;3.77;;
7957;SDS011;4024;52.172;5.378;2022-08-03T05:22:24;10.33;;;4.40;;
7957;SDS011;4024;52.172;5.378;2022-08-03T05:24:50;12.40;;;4.33;;
7957;SDS011;4024;52.172;5.378;2022-08-03T05:27:16;10.13;;;4.30;;
7957;SDS011;4024;52.172;5.378;2022-08-03T05:29:45;9.13;;;3.93;;
7957;SDS011;4024;52.172;5.378;2022-08-03T05:32:12;10.70;;;4.57;;
7957;SDS011;4024;52.172;5.378;2022-08-03T05:34:38;10.87;;;4.43;;
7957;SDS011;4024;52.172;5.378;2022-08-03T05:37:03;8.40;;;4.07;;
7957;SDS011;4024;52.172;5.378;2022-08-03T05:39:29;10.03;;;3.93;;
7957;SDS011;4024;52.172;5.378;2022-08-03T05:41:55;13.00;;;4.40;;
7957;SDS011;4024;52.172;5.378;2022-08-03T05:44:20;12.33;;;4.20;;
7957;SDS011;4024;52.172;5.378;2022-08-03T05:46:46;8.90;;;4.20;;
7957;SDS011;4024;52.172;5.378;2022-08-03T05:49:11;11.03;;;4.30;;
7957;SDS011;4024;52.172;5.378;2022-08-03T05:51:37;11.73;;;3.73;;
7957;SDS011;4024;52.172;5.378;2022-08-03T05:54:03;13.03;;;4.13;;
7957;SDS011;4024;52.172;5.378;2022-08-03T05:56:28;8.00;;;3.90;;
7957;SDS011;4024;52.172;5.378;2022-08-03T05:58:54;11.53;;;4.07;;
7957;SDS011;4024;52.172;5.378;2022-08-03T06:01:20;8.87;;;3.90;;
7957;SDS011;4024;52.172;5.378;2022-08-03T06:03:56;11.77;;;4.30;;
7957;SDS011;4024;52.172;5.378;2022-08-03T06:06:23;8.60;;;4.03;;
7957;SDS011;4024;52.172;5.378;2022-08-03T06:08:49;10.10;;;4.23;;
7957;SDS011;4024;52.172;5.378;2022-08-03T06:11:15;11.80;;;4.33;;
7957;SDS011;4024;52.172;5.378;2022-08-03T06:13:41;12.20;;;4.60;;
7957;SDS011;4024;52.172;5.378;2022-08-03T06:16:07;8.73;;;3.67;;
7957;SDS011;4024;52.172;5.378;2022-08-03T06:18:34;10.57;;;4.33;;
7957;SDS011;4024;52.172;5.378;2022-08-03T06:21:00;12.03;;;4.60;;
7957;SDS011;4024;52.172;5.378;2022-08-03T06:23:26;12.07;;;3.93;;
7957;SDS011;4024;52.172;5.378;2022-08-03T06:25:52;8.67;;;4.07;;
7957;SDS011;4024;52.172;5.378;2022-08-03T06:28:18;13.63;;;4.37;;
7957;SDS011;4024;52.172;5.378;2022-08-03T06:30:43;11.23;;;4.47;;
7957;SDS011;4024;52.172;5.378;2022-08-03T06:33:09;9.97;;;4.17;;
7957;SDS011;4024;52.172;5.378;2022-08-03T06:35:35;13.40;;;4.33;;
7957;SDS011;4024;52.172;5.378;2022-08-03T06:38:02;13.13;;;4.57;;
7957;SDS011;4024;52.172;5.378;2022-08-03T06:40:27;9.93;;;4.97;;
7957;SDS011;4024;52.172;5.378;2022-08-03T06:42:58;13.33;;;4.30;;
7957;SDS011;4024;52.172;5.378;2022-08-03T06:45:25;10.47;;;4.30;;
7957;SDS011;4024;52.172;5.378;2022-08-03T06:48:09;12.13;;;4.90;;
7957;SDS011;4024;52.172;5.378;2022-08-03T06:50:36;13.97;;;4.30;;
7957;SDS011;4024;52.172;5.378;2022-08-03T06:53:03;21.93;;;5.23;;
7957;SDS011;4024;52.172;5.378;2022-08-03T06:55:29;12.27;;;4.57;;
7957;SDS011;4024;52.172;5.378;2022-08-03T06:57:56;9.97;;;4.40;;
7957;SDS011;4024;52.172;5.378;2022-08-03T07:00:22;13.00;;;4.80;;
7957;SDS011;4024;52.172;5.378;2022-08-03T07:02:49;14.07;;;4.60;;
7957;SDS011;4024;52.172;5.378;2022-08-03T07:05:16;12.67;;;4.20;;
7957;SDS011;4024;52.172;5.378;2022-08-03T07:07:42;10.63;;;4.00;;
7957;SDS011;4024;52.172;5.378;2022-08-03T07:10:07;14.77;;;4.33;;
7957;SDS011;4024;52.172;5.378;2022-08-03T07:12:34;10.03;;;3.90;;
7957;SDS011;4024;52.172;5.378;2022-08-03T07:15:00;11.27;;;4.20;;
7957;SDS011;4024;52.172;5.378;2022-08-03T07:17:28;15.07;;;5.13;;
7957;SDS011;4024;52.172;5.378;2022-08-03T07:19:54;13.87;;;4.87;;
7957;SDS011;4024;52.172;5.378;2022-08-03T07:22:20;12.37;;;4.13;;
7957;SDS011;4024;52.172;5.378;2022-08-03T07:24:46;11.43;;;4.43;;
7957;SDS011;4024;52.172;5.378;2022-08-03T07:27:11;11.93;;;4.50;;
7957;SDS011;4024;52.172;5.378;2022-08-03T07:29:37;9.97;;;4.37;;
7957;SDS011;4024;52.172;5.378;2022-08-03T07:32:03;10.00;;;3.80;;
7957;SDS011;4024;52.172;5.378;2022-08-03T07:34:29;11.57;;;4.00;;
7957;SDS011;4024;52.172;5.378;2022-08-03T07:36:55;9.67;;;4.20;;
7957;SDS011;4024;52.172;5.378;2022-08-03T07:39:22;9.00;;;4.40;;
7957;SDS011;4024;52.172;5.378;2022-08-03T07:41:47;10.07;;;4.20;;
7957;SDS011;4024;52.172;5.378;2022-08-03T07:44:15;11.10;;;4.27;;
7957;SDS011;4024;52.172;5.378;2022-08-03T07:46:41;11.63;;;3.90;;
7957;SDS011;4024;52.172;5.378;2022-08-03T07:49:07;10.50;;;4.40;;
7957;SDS011;4024;52.172;5.378;2022-08-03T07:51:33;15.83;;;4.87;;
7957;SDS011;4024;52.172;5.378;2022-08-03T07:53:59;12.57;;;4.50;;
7957;SDS011;4024;52.172;5.378;2022-08-03T07:56:25;10.73;;;4.57;;
7957;SDS011;4024;52.172;5.378;2022-08-03T07:58:52;9.97;;;3.50;;
7957;SDS011;4024;52.172;5.378;2022-08-03T08:01:18;12.77;;;4.80;;
7957;SDS011;4024;52.172;5.378;2022-08-03T08:03:44;16.13;;;4.93;;
7957;SDS011;4024;52.172;5.378;2022-08-03T08:06:10;10.40;;;4.47;;
7957;SDS011;4024;52.172;5.378;2022-08-03T08:08:37;9.13;;;3.83;;
7957;SDS011;4024;52.172;5.378;2022-08-03T08:11:03;11.67;;;4.17;;
7957;SDS011;4024;52.172;5.378;2022-08-03T08:13:29;13.77;;;4.37;;
7957;SDS011;4024;52.172;5.378;2022-08-03T08:15:55;14.37;;;4.93;;
7957;SDS011;4024;52.172;5.378;2022-08-03T08:18:21;12.70;;;4.30;;
7957;SDS011;4024;52.172;5.378;2022-08-03T08:20:48;10.03;;;3.57;;
7957;SDS011;4024;52.172;5.378;2022-08-03T08:23:14;14.27;;;4.00;;
7957;SDS011;4024;52.172;5.378;2022-08-03T08:25:46;13.47;;;4.03;;
7957;SDS011;4024;52.172;5.378;2022-08-03T08:28:20;13.43;;;4.80;;
7957;SDS011;4024;52.172;5.378;2022-08-03T08:30:47;12.07;;;3.70;;
7957;SDS011;4024;52.172;5.378;2022-08-03T08:33:12;16.63;;;4.70;;
7957;SDS011;4024;52.172;5.378;2022-08-03T08:35:46;15.83;;;4.33;;
7957;SDS011;4024;52.172;5.378;2022-08-03T08:38:12;15.70;;;4.30;;
7957;SDS011;4024;52.172;5.378;2022-08-03T08:40:37;13.70;;;4.50;;
7957;SDS011;4024;52.172;5.378;2022-08-03T08:43:03;10.63;;;4.63;;
7957;SDS011;4024;52.172;5.378;2022-08-03T08:45:29;16.40;;;4.97;;
7957;SDS011;4024;52.172;5.378;2022-08-03T08:48:17;15.70;;;4.43;;
7957;SDS011;4024;52.172;5.378;2022-08-03T08:50:55;12.47;;;4.37;;
7957;SDS011;4024;52.172;5.378;2022-08-03T08:53:24;10.70;;;3.83;;
7957;SDS011;4024;52.172;5.378;2022-08-03T08:55:52;12.17;;;4.90;;
7957;SDS011;4024;52.172;5.378;2022-08-03T08:58:24;13.03;;;4.50;;
7957;SDS011;4024;52.172;5.378;2022-08-03T09:00:52;10.33;;;4.07;;
7957;SDS011;4024;52.172;5.378;2022-08-03T09:03:18;10.43;;;4.10;;
7957;SDS011;4024;52.172;5.378;2022-08-03T09:05:44;12.97;;;4.57;;
7957;SDS011;4024;52.172;5.378;2022-08-03T09:08:10;12.53;;;4.97;;
7957;SDS011;4024;52.172;5.378;2022-08-03T09:10:39;16.57;;;4.90;;
7957;SDS011;4024;52.172;5.378;2022-08-03T09:13:10;19.17;;;5.20;;
7957;SDS011;4024;52.172;5.378;2022-08-03T09:15:36;12.13;;;4.60;;
7957;SDS011;4024;52.172;5.378;2022-08-03T09:18:03;15.67;;;4.70;;
7957;SDS011;4024;52.172;5.378;2022-08-03T09:20:32;13.17;;;4.10;;
7957;SDS011;4024;52.172;5.378;2022-08-03T09:22:59;16.30;;;4.77;;
7957;SDS011;4024;52.172;5.378;2022-08-03T09:28:02;19.00;;;4.53;;
7957;SDS011;4024;52.172;5.378;2022-08-03T09:30:36;12.83;;;4.23;;
7957;SDS011;4024;52.172;5.378;2022-08-03T09:33:10;14.50;;;4.40;;
7957;SDS011;4024;52.172;5.378;2022-08-03T09:35:42;19.07;;;4.90;;
7957;SDS011;4024;52.172;5.378;2022-08-03T09:40:35;12.57;;;4.37;;
7957;SDS011;4024;52.172;5.378;2022-08-03T09:43:01;11.73;;;4.53;;
7957;SDS011;4024;52.172;5.378;2022-08-03T09:45:26;11.13;;;4.23;;
7957;SDS011;4024;52.172;5.378;2022-08-03T09:47:55;18.10;;;4.40;;
7957;SDS011;4024;52.172;5.378;2022-08-03T09:50:23;9.73;;;3.73;;
7957;SDS011;4024;52.172;5.378;2022-08-03T09:52:49;11.63;;;3.70;;
7957;SDS011;4024;52.172;5.378;2022-08-03T09:55:16;19.13;;;4.70;;
7957;SDS011;4024;52.172;5.378;2022-08-03T09:57:44;14.90;;;4.20;;
7957;SDS011;4024;52.172;5.378;2022-08-03T10:00:13;11.70;;;4.07;;
7957;SDS011;4024;52.172;5.378;2022-08-03T10:02:41;18.93;;;4.27;;
7957;SDS011;4024;52.172;5.378;2022-08-03T10:05:09;9.67;;;3.73;;
7957;SDS011;4024;52.172;5.378;2022-08-03T10:07:42;12.93;;;4.80;;
7957;SDS011;4024;52.172;5.378;2022-08-03T10:10:09;13.07;;;3.93;;
7957;SDS011;4024;52.172;5.378;2022-08-03T10:12:36;9.50;;;4.10;;
7957;SDS011;4024;52.172;5.378;2022-08-03T10:15:02;12.63;;;4.00;;
7957;SDS011;4024;52.172;5.378;2022-08-03T10:17:29;13.90;;;4.60;;
7957;SDS011;4024;52.172;5.378;2022-08-03T10:19:55;15.37;;;4.27;;
7957;SDS011;4024;52.172;5.378;2022-08-03T10:22:23;10.57;;;4.00;;
7957;SDS011;4024;52.172;5.378;2022-08-03T10:24:52;12.23;;;3.90;;
7957;SDS011;4024;52.172;5.378;2022-08-03T10:27:22;12.93;;;4.20;;
7957;SDS011;4024;52.172;5.378;2022-08-03T10:29:50;14.23;;;4.67;;
7957;SDS011;4024;52.172;5.378;2022-08-03T10:32:24;15.23;;;3.73;;
7957;SDS011;4024;52.172;5.378;2022-08-03T10:34:58;9.97;;;4.37;;
7957;SDS011;4024;52.172;5.378;2022-08-03T10:37:29;10.63;;;4.13;;
7957;SDS011;4024;52.172;5.378;2022-08-03T10:39:57;10.40;;;4.33;;
7957;SDS011;4024;52.172;5.378;2022-08-03T10:42:25;12.07;;;3.83;;
7957;SDS011;4024;52.172;5.378;2022-08-03T10:44:54;11.13;;;4.23;;
7957;SDS011;4024;52.172;5.378;2022-08-03T10:47:36;12.80;;;3.83;;
7957;SDS011;4024;52.172;5.378;2022-08-03T10:50:04;13.47;;;4.13;;
7957;SDS011;4024;52.172;5.378;2022-08-03T10:52:31;9.33;;;3.03;;
7957;SDS011;4024;52.172;5.378;2022-08-03T10:54:57;12.37;;;4.00;;
7957;SDS011;4024;52.172;5.378;2022-08-03T10:57:52;9.57;;;3.27;;
7957;SDS011;4024;52.172;5.378;2022-08-03T11:00:19;12.53;;;4.37;;
7957;SDS011;4024;52.172;5.378;2022-08-03T11:03:02;13.20;;;3.83;;
7957;SDS011;4024;52.172;5.378;2022-08-03T11:05:31;10.27;;;3.63;;
7957;SDS011;4024;52.172;5.378;2022-08-03T11:10:43;10.97;;;3.53;;
7957;SDS011;4024;52.172;5.378;2022-08-03T11:13:09;15.57;;;3.33;;
7957;SDS011;4024;52.172;5.378;2022-08-03T11:15:39;4.97;;;2.77;;
7957;SDS011;4024;52.172;5.378;2022-08-03T11:18:09;9.07;;;3.30;;
7957;SDS011;4024;52.172;5.378;2022-08-03T11:20:46;10.87;;;4.33;;
7957;SDS011;4024;52.172;5.378;2022-08-03T11:23:13;8.23;;;3.60;;
7957;SDS011;4024;52.172;5.378;2022-08-03T11:28:37;10.60;;;3.80;;
7957;SDS011;4024;52.172;5.378;2022-08-03T11:36:30;7.77;;;3.23;;
7957;SDS011;4024;52.172;5.378;2022-08-03T11:39:15;8.03;;;2.80;;
7957;SDS011;4024;52.172;5.378;2022-08-03T11:41:41;11.03;;;2.70;;
7957;SDS011;4024;52.172;5.378;2022-08-03T11:44:07;8.90;;;2.53;;
7957;SDS011;4024;52.172;5.378;2022-08-03T11:46:36;6.63;;;2.70;;
7957;SDS011;4024;52.172;5.378;2022-08-03T11:49:03;7.23;;;2.57;;
7957;SDS011;4024;52.172;5.378;2022-08-03T11:51:33;5.97;;;2.57;;
7957;SDS011;4024;52.172;5.378;2022-08-03T11:54:02;6.47;;;2.90;;
7957;SDS011;4024;52.172;5.378;2022-08-03T11:56:46;9.93;;;3.67;;
7957;SDS011;4024;52.172;5.378;2022-08-03T11:59:13;8.63;;;3.03;;
7957;SDS011;4024;52.172;5.378;2022-08-03T12:01:38;6.97;;;3.00;;
7957;SDS011;4024;52.172;5.378;2022-08-03T12:04:04;7.23;;;2.73;;
7957;SDS011;4024;52.172;5.378;2022-08-03T12:06:30;10.43;;;3.47;;
7957;SDS011;4024;52.172;5.378;2022-08-03T12:09:18;8.77;;;3.40;;
7957;SDS011;4024;52.172;5.378;2022-08-03T12:11:47;12.33;;;2.67;;
7957;SDS011;4024;52.172;5.378;2022-08-03T12:14:17;9.27;;;3.23;;
7957;SDS011;4024;52.172;5.378;2022-08-03T12:16:47;8.27;;;3.00;;
7957;SDS011;4024;52.172;5.378;2022-08-03T12:19:13;7.53;;;2.87;;
7957;SDS011;4024;52.172;5.378;2022-08-03T12:21:49;10.47;;;3.50;;
7957;SDS011;4024;52.172;5.378;2022-08-03T12:24:15;12.47;;;3.20;;
7957;SDS011;4024;52.172;5.378;2022-08-03T12:26:45;8.30;;;3.00;;
7957;SDS011;4024;52.172;5.378;2022-08-03T12:29:21;10.03;;;3.47;;
7957;SDS011;4024;52.172;5.378;2022-08-03T12:31:49;5.53;;;3.00;;
7957;SDS011;4024;52.172;5.378;2022-08-03T12:34:15;11.53;;;3.37;;
7957;SDS011;4024;52.172;5.378;2022-08-03T12:36:51;5.83;;;2.60;;
7957;SDS011;4024;52.172;5.378;2022-08-03T12:39:23;5.77;;;2.77;;
7957;SDS011;4024;52.172;5.378;2022-08-03T12:41:53;6.73;;;2.60;;
7957;SDS011;4024;52.172;5.378;2022-08-03T12:44:30;7.93;;;3.00;;
7957;SDS011;4024;52.172;5.378;2022-08-03T12:46:57;6.23;;;2.53;;
7957;SDS011;4024;52.172;5.378;2022-08-03T12:49:23;5.07;;;2.60;;
7957;SDS011;4024;52.172;5.378;2022-08-03T12:54:15;8.03;;;3.03;;
7957;SDS011;4024;52.172;5.378;2022-08-03T12:57:02;9.63;;;3.47;;
7957;SDS011;4024;52.172;5.378;2022-08-03T12:59:29;9.47;;;3.40;;
7957;SDS011;4024;52.172;5.378;2022-08-03T13:01:57;5.87;;;2.93;;
7957;SDS011;4024;52.172;5.378;2022-08-03T13:04:30;5.50;;;3.53;;
7957;SDS011;4024;52.172;5.378;2022-08-03T13:07:02;7.33;;;3.20;;
7957;SDS011;4024;52.172;5.378;2022-08-03T13:09:43;7.47;;;3.40;;
7957;SDS011;4024;52.172;5.378;2022-08-03T13:12:10;7.70;;;3.10;;
7957;SDS011;4024;52.172;5.378;2022-08-03T13:14:36;6.10;;;3.03;;
7957;SDS011;4024;52.172;5.378;2022-08-03T13:17:02;9.20;;;3.60;;
7957;SDS011;4024;52.172;5.378;2022-08-03T13:19:30;8.43;;;3.43;;
7957;SDS011;4024;52.172;5.378;2022-08-03T13:21:58;7.13;;;3.50;;
7957;SDS011;4024;52.172;5.378;2022-08-03T13:24:24;6.30;;;3.33;;
7957;SDS011;4024;52.172;5.378;2022-08-03T13:26:49;8.47;;;4.23;;
7957;SDS011;4024;52.172;5.378;2022-08-03T13:29:16;9.10;;;3.70;;
7957;SDS011;4024;52.172;5.378;2022-08-03T13:31:41;8.43;;;3.40;;
7957;SDS011;4024;52.172;5.378;2022-08-03T13:34:07;6.83;;;3.57;;
7957;SDS011;4024;52.172;5.378;2022-08-03T13:36:33;5.33;;;3.90;;
7957;SDS011;4024;52.172;5.378;2022-08-03T13:38:59;5.43;;;3.73;;
7957;SDS011;4024;52.172;5.378;2022-08-03T13:41:25;6.80;;;3.80;;
7957;SDS011;4024;52.172;5.378;2022-08-03T13:43:50;4.33;;;3.90;;
7957;SDS011;4024;52.172;5.378;2022-08-03T13:46:16;5.70;;;3.43;;
7957;SDS011;4024;52.172;5.378;2022-08-03T13:48:41;6.97;;;3.73;;
7957;SDS011;4024;52.172;5.378;2022-08-03T13:51:07;6.23;;;3.60;;
7957;SDS011;4024;52.172;5.378;2022-08-03T13:53:33;6.60;;;3.77;;
7957;SDS011;4024;52.172;5.378;2022-08-03T13:55:58;6.53;;;3.13;;
7957;SDS011;4024;52.172;5.378;2022-08-03T13:58:24;8.07;;;3.27;;
7957;SDS011;4024;52.172;5.378;2022-08-03T14:00:50;6.97;;;3.77;;
7957;SDS011;4024;52.172;5.378;2022-08-03T14:03:17;4.90;;;3.17;;
7957;SDS011;4024;52.172;5.378;2022-08-03T14:05:43;4.33;;;3.10;;
7957;SDS011;4024;52.172;5.378;2022-08-03T14:08:09;5.37;;;3.10;;
7957;SDS011;4024;52.172;5.378;2022-08-03T14:10:36;7.30;;;3.40;;
7957;SDS011;4024;52.172;5.378;2022-08-03T14:13:04;5.17;;;3.20;;
7957;SDS011;4024;52.172;5.378;2022-08-03T14:15:30;4.97;;;3.23;;
7957;SDS011;4024;52.172;5.378;2022-08-03T14:17:56;5.77;;;2.97;;
7957;SDS011;4024;52.172;5.378;2022-08-03T14:20:21;6.80;;;3.03;;
7957;SDS011;4024;52.172;5.378;2022-08-03T14:22:47;7.13;;;3.33;;
7957;SDS011;4024;52.172;5.378;2022-08-03T14:25:13;4.00;;;3.10;;
7957;SDS011;4024;52.172;5.378;2022-08-03T14:27:38;4.83;;;2.70;;
7957;SDS011;4024;52.172;5.378;2022-08-03T14:30:04;5.57;;;3.03;;
7957;SDS011;4024;52.172;5.378;2022-08-03T14:32:30;7.43;;;3.00;;
7957;SDS011;4024;52.172;5.378;2022-08-03T14:34:56;19.87;;;3.97;;
7957;SDS011;4024;52.172;5.378;2022-08-03T14:37:21;9.20;;;2.83;;
7957;SDS011;4024;52.172;5.378;2022-08-03T14:39:47;6.60;;;2.97;;
7957;SDS011;4024;52.172;5.378;2022-08-03T14:42:13;8.10;;;3.13;;
7957;SDS011;4024;52.172;5.378;2022-08-03T14:44:39;5.03;;;2.60;;
7957;SDS011;4024;52.172;5.378;2022-08-03T14:47:05;4.53;;;2.50;;
7957;SDS011;4024;52.172;5.378;2022-08-03T14:49:31;5.57;;;3.00;;
7957;SDS011;4024;52.172;5.378;2022-08-03T14:51:56;4.37;;;2.70;;
7957;SDS011;4024;52.172;5.378;2022-08-03T14:54:23;5.67;;;2.63;;
7957;SDS011;4024;52.172;5.378;2022-08-03T14:56:50;4.03;;;2.40;;
7957;SDS011;4024;52.172;5.378;2022-08-03T14:59:16;5.47;;;2.63;;
7957;SDS011;4024;52.172;5.378;2022-08-03T15:01:41;5.97;;;2.57;;
7957;SDS011;4024;52.172;5.378;2022-08-03T15:04:07;4.83;;;2.17;;
7957;SDS011;4024;52.172;5.378;2022-08-03T15:06:33;5.40;;;2.57;;
7957;SDS011;4024;52.172;5.378;2022-08-03T15:08:58;6.57;;;2.90;;
7957;SDS011;4024;52.172;5.378;2022-08-03T15:11:24;4.70;;;2.53;;
7957;SDS011;4024;52.172;5.378;2022-08-03T15:13:49;5.10;;;2.93;;
7957;SDS011;4024;52.172;5.378;2022-08-03T15:16:15;4.83;;;2.50;;
7957;SDS011;4024;52.172;5.378;2022-08-03T15:18:41;8.10;;;2.80;;
7957;SDS011;4024;52.172;5.378;2022-08-03T15:21:06;4.90;;;2.70;;
7957;SDS011;4024;52.172;5.378;2022-08-03T15:23:32;5.20;;;2.40;;
7957;SDS011;4024;52.172;5.378;2022-08-03T15:25:58;5.93;;;2.77;;
7957;SDS011;4024;52.172;5.378;2022-08-03T15:28:23;5.87;;;2.63;;
7957;SDS011;4024;52.172;5.378;2022-08-03T15:30:50;3.97;;;2.60;;
7957;SDS011;4024;52.172;5.378;2022-08-03T15:33:16;6.93;;;2.63;;
7957;SDS011;4024;52.172;5.378;2022-08-03T15:35:42;5.33;;;2.33;;
7957;SDS011;4024;52.172;5.378;2022-08-03T15:38:08;4.60;;;2.43;;
7957;SDS011;4024;52.172;5.378;2022-08-03T15:40:33;5.53;;;2.90;;
7957;SDS011;4024;52.172;5.378;2022-08-03T15:42:59;6.73;;;2.67;;
7957;SDS011;4024;52.172;5.378;2022-08-03T15:45:25;3.47;;;2.37;;
7957;SDS011;4024;52.172;5.378;2022-08-03T15:47:51;4.73;;;2.40;;